sensor_id;sensor_type;location;lat;lon;timestamp;P1;durP1;ratioP1;P2;durP2;ratioP2
55493;SDS011;41355;50.390;19.096;2023-06-14T00:01:46;11.00;;;5.35;;
55493;SDS011;41355;50.390;19.096;2023-06-14T00:04:12;9.57;;;4.78;;
55493;SDS011;41355;50.390;19.096;2023-06-14T00:06:41;12.90;;;5.43;;
55493;SDS011;41355;50.390;19.096;2023-06-14T00:09:09;11.82;;;5.68;;
55493;SDS011;41355;50.390;19.096;2023-06-14T00:11:37;12.98;;;5.63;;
55493;SDS011;41355;50.390;19.096;2023-06-14T00:14:03;12.35;;;5.15;;
55493;SDS011;41355;50.390;19.096;2023-06-14T00:16:29;10.57;;;5.00;;
55493;SDS011;41355;50.390;19.096;2023-06-14T00:18:57;11.63;;;4.63;;
55493;SDS011;41355;50.390;19.096;2023-06-14T00:21:23;9.45;;;4.72;;
55493;SDS011;41355;50.390;19.096;2023-06-14T00:23:50;10.10;;;4.63;;
55493;SDS011;41355;50.390;19.096;2023-06-14T00:26:16;10.57;;;5.25;;
55493;SDS011;41355;50.390;19.096;2023-06-14T00:28:42;10.23;;;4.97;;
55493;SDS011;41355;50.390;19.096;2023-06-14T00:31:08;10.32;;;4.93;;
55493;SDS011;41355;50.390;19.096;2023-06-14T00:33:34;12.75;;;5.28;;
55493;SDS011;41355;50.390;19.096;2023-06-14T00:36:00;10.15;;;4.50;;
55493;SDS011;41355;50.390;19.096;2023-06-14T00:38:26;11.55;;;5.00;;
55493;SDS011;41355;50.390;19.096;2023-06-14T00:40:52;10.32;;;5.07;;
55493;SDS011;41355;50.390;19.096;2023-06-14T00:43:18;8.63;;;4.75;;
55493;SDS011;41355;50.390;19.096;2023-06-14T00:45:44;9.00;;;4.75;;
55493;SDS011;41355;50.390;19.096;2023-06-14T00:48:10;9.05;;;4.15;;
55493;SDS011;41355;50.390;19.096;2023-06-14T00:50:36;8.65;;;4.53;;
55493;SDS011;41355;50.390;19.096;2023-06-14T00:53:03;9.95;;;4.88;;
55493;SDS011;41355;50.390;19.096;2023-06-14T00:55:29;11.50;;;5.60;;
55493;SDS011;41355;50.390;19.096;2023-06-14T00:57:57;9.55;;;4.45;;
55493;SDS011;41355;50.390;19.096;2023-06-14T01:00:24;9.02;;;4.90;;
55493;SDS011;41355;50.390;19.096;2023-06-14T01:02:50;10.98;;;5.47;;
55493;SDS011;41355;50.390;19.096;2023-06-14T01:05:16;10.95;;;5.05;;
55493;SDS011;41355;50.390;19.096;2023-06-14T01:12:44;10.02;;;4.75;;
55493;SDS011;41355;50.390;19.096;2023-06-14T01:15:14;9.38;;;4.63;;
55493;SDS011;41355;50.390;19.096;2023-06-14T01:17:41;9.35;;;4.65;;
55493;SDS011;41355;50.390;19.096;2023-06-14T01:20:10;9.60;;;4.65;;
55493;SDS011;41355;50.390;19.096;2023-06-14T01:22:47;8.75;;;4.75;;
55493;SDS011;41355;50.390;19.096;2023-06-14T01:25:13;8.15;;;4.13;;
55493;SDS011;41355;50.390;19.096;2023-06-14T01:27:41;10.88;;;4.93;;
55493;SDS011;41355;50.390;19.096;2023-06-14T01:30:07;12.57;;;5.32;;
55493;SDS011;41355;50.390;19.096;2023-06-14T01:32:34;15.95;;;6.28;;
55493;SDS011;41355;50.390;19.096;2023-06-14T01:35:01;12.48;;;5.35;;
55493;SDS011;41355;50.390;19.096;2023-06-14T01:37:28;12.70;;;5.90;;
55493;SDS011;41355;50.390;19.096;2023-06-14T01:39:55;13.75;;;6.30;;
55493;SDS011;41355;50.390;19.096;2023-06-14T01:42:21;15.40;;;6.60;;
55493;SDS011;41355;50.390;19.096;2023-06-14T01:44:48;15.52;;;6.43;;
55493;SDS011;41355;50.390;19.096;2023-06-14T01:47:15;11.27;;;5.43;;
55493;SDS011;41355;50.390;19.096;2023-06-14T01:49:41;13.32;;;6.75;;
55493;SDS011;41355;50.390;19.096;2023-06-14T01:52:07;13.52;;;5.75;;
55493;SDS011;41355;50.390;19.096;2023-06-14T01:54:35;14.60;;;6.65;;
55493;SDS011;41355;50.390;19.096;2023-06-14T01:57:03;15.05;;;6.53;;
55493;SDS011;41355;50.390;19.096;2023-06-14T01:59:29;17.13;;;6.70;;
55493;SDS011;41355;50.390;19.096;2023-06-14T02:01:56;14.32;;;6.05;;
55493;SDS011;41355;50.390;19.096;2023-06-14T02:04:22;14.70;;;6.35;;
55493;SDS011;41355;50.390;19.096;2023-06-14T02:06:48;13.90;;;6.40;;
55493;SDS011;41355;50.390;19.096;2023-06-14T02:09:14;15.93;;;6.88;;
55493;SDS011;41355;50.390;19.096;2023-06-14T02:11:40;15.63;;;6.78;;
55493;SDS011;41355;50.390;19.096;2023-06-14T02:14:06;11.77;;;6.05;;
55493;SDS011;41355;50.390;19.096;2023-06-14T02:16:35;10.23;;;5.00;;
55493;SDS011;41355;50.390;19.096;2023-06-14T02:19:02;9.90;;;5.28;;
55493;SDS011;41355;50.390;19.096;2023-06-14T02:21:29;11.25;;;5.25;;
55493;SDS011;41355;50.390;19.096;2023-06-14T02:23:55;12.82;;;6.65;;
55493;SDS011;41355;50.390;19.096;2023-06-14T02:26:21;14.20;;;5.60;;
55493;SDS011;41355;50.390;19.096;2023-06-14T02:28:50;13.20;;;6.18;;
55493;SDS011;41355;50.390;19.096;2023-06-14T02:31:16;14.88;;;6.57;;
55493;SDS011;41355;50.390;19.096;2023-06-14T02:33:43;15.32;;;6.90;;
55493;SDS011;41355;50.390;19.096;2023-06-14T02:36:09;14.95;;;6.38;;
55493;SDS011;41355;50.390;19.096;2023-06-14T02:38:35;18.80;;;7.32;;
55493;SDS011;41355;50.390;19.096;2023-06-14T02:41:01;16.63;;;7.60;;
55493;SDS011;41355;50.390;19.096;2023-06-14T02:43:28;17.33;;;7.47;;
55493;SDS011;41355;50.390;19.096;2023-06-14T02:45:55;19.75;;;7.85;;
55493;SDS011;41355;50.390;19.096;2023-06-14T02:48:21;16.15;;;7.07;;
55493;SDS011;41355;50.390;19.096;2023-06-14T02:50:47;13.70;;;6.20;;
55493;SDS011;41355;50.390;19.096;2023-06-14T02:53:13;14.52;;;6.68;;
55493;SDS011;41355;50.390;19.096;2023-06-14T02:55:39;16.40;;;6.70;;
55493;SDS011;41355;50.390;19.096;2023-06-14T02:58:05;15.55;;;6.95;;
55493;SDS011;41355;50.390;19.096;2023-06-14T03:00:31;13.88;;;6.40;;
55493;SDS011;41355;50.390;19.096;2023-06-14T03:02:58;16.33;;;7.00;;
55493;SDS011;41355;50.390;19.096;2023-06-14T03:05:26;15.10;;;7.35;;
55493;SDS011;41355;50.390;19.096;2023-06-14T03:07:53;19.20;;;7.75;;
55493;SDS011;41355;50.390;19.096;2023-06-14T03:10:19;18.48;;;7.95;;
55493;SDS011;41355;50.390;19.096;2023-06-14T03:12:47;20.48;;;8.68;;
55493;SDS011;41355;50.390;19.096;2023-06-14T03:15:13;18.70;;;7.50;;
55493;SDS011;41355;50.390;19.096;2023-06-14T03:17:39;15.35;;;7.20;;
55493;SDS011;41355;50.390;19.096;2023-06-14T03:20:05;18.52;;;6.97;;
55493;SDS011;41355;50.390;19.096;2023-06-14T03:22:33;16.77;;;6.72;;
55493;SDS011;41355;50.390;19.096;2023-06-14T03:24:59;15.60;;;6.35;;
55493;SDS011;41355;50.390;19.096;2023-06-14T03:27:25;16.13;;;8.10;;
55493;SDS011;41355;50.390;19.096;2023-06-14T03:29:53;10.13;;;3.97;;
55493;SDS011;41355;50.390;19.096;2023-06-14T03:32:19;19.35;;;7.90;;
55493;SDS011;41355;50.390;19.096;2023-06-14T03:34:45;15.25;;;7.10;;
55493;SDS011;41355;50.390;19.096;2023-06-14T03:37:11;15.82;;;5.47;;
55493;SDS011;41355;50.390;19.096;2023-06-14T03:39:37;17.05;;;7.18;;
55493;SDS011;41355;50.390;19.096;2023-06-14T03:42:10;10.52;;;4.70;;
55493;SDS011;41355;50.390;19.096;2023-06-14T03:44:36;21.33;;;9.38;;
55493;SDS011;41355;50.390;19.096;2023-06-14T03:47:03;20.45;;;8.70;;
55493;SDS011;41355;50.390;19.096;2023-06-14T03:49:29;18.60;;;8.10;;
55493;SDS011;41355;50.390;19.096;2023-06-14T03:51:55;16.90;;;8.18;;
55493;SDS011;41355;50.390;19.096;2023-06-14T03:54:21;22.17;;;7.78;;
55493;SDS011;41355;50.390;19.096;2023-06-14T03:56:47;13.80;;;6.97;;
55493;SDS011;41355;50.390;19.096;2023-06-14T03:59:13;24.25;;;9.70;;
55493;SDS011;41355;50.390;19.096;2023-06-14T04:01:39;24.25;;;9.27;;
55493;SDS011;41355;50.390;19.096;2023-06-14T04:04:11;19.98;;;8.90;;
55493;SDS011;41355;50.390;19.096;2023-06-14T04:06:37;25.75;;;9.52;;
55493;SDS011;41355;50.390;19.096;2023-06-14T04:09:06;25.90;;;9.55;;
55493;SDS011;41355;50.390;19.096;2023-06-14T04:11:32;25.80;;;11.15;;
55493;SDS011;41355;50.390;19.096;2023-06-14T04:13:58;25.73;;;9.77;;
55493;SDS011;41355;50.390;19.096;2023-06-14T04:16:24;22.08;;;10.45;;
55493;SDS011;41355;50.390;19.096;2023-06-14T04:18:50;20.52;;;9.68;;
55493;SDS011;41355;50.390;19.096;2023-06-14T04:21:17;22.40;;;9.18;;
55493;SDS011;41355;50.390;19.096;2023-06-14T04:23:43;20.40;;;10.00;;
55493;SDS011;41355;50.390;19.096;2023-06-14T04:26:10;24.80;;;10.40;;
55493;SDS011;41355;50.390;19.096;2023-06-14T04:28:36;22.27;;;10.57;;
55493;SDS011;41355;50.390;19.096;2023-06-14T04:31:06;26.27;;;12.77;;
55493;SDS011;41355;50.390;19.096;2023-06-14T04:33:34;23.90;;;10.45;;
55493;SDS011;41355;50.390;19.096;2023-06-14T04:36:07;19.23;;;9.68;;
55493;SDS011;41355;50.390;19.096;2023-06-14T04:38:34;15.57;;;8.50;;
55493;SDS011;41355;50.390;19.096;2023-06-14T04:41:00;19.65;;;8.38;;
55493;SDS011;41355;50.390;19.096;2023-06-14T04:43:27;21.90;;;10.05;;
55493;SDS011;41355;50.390;19.096;2023-06-14T04:45:53;24.98;;;11.38;;
55493;SDS011;41355;50.390;19.096;2023-06-14T04:48:22;23.95;;;9.93;;
55493;SDS011;41355;50.390;19.096;2023-06-14T04:50:48;23.08;;;9.82;;
55493;SDS011;41355;50.390;19.096;2023-06-14T04:53:19;20.02;;;9.63;;
55493;SDS011;41355;50.390;19.096;2023-06-14T04:55:47;26.98;;;11.35;;
55493;SDS011;41355;50.390;19.096;2023-06-14T04:58:13;19.92;;;9.77;;
55493;SDS011;41355;50.390;19.096;2023-06-14T05:00:40;19.50;;;9.10;;
55493;SDS011;41355;50.390;19.096;2023-06-14T05:03:08;21.40;;;9.68;;
55493;SDS011;41355;50.390;19.096;2023-06-14T05:05:34;19.40;;;9.48;;
55493;SDS011;41355;50.390;19.096;2023-06-14T05:08:00;20.80;;;9.10;;
55493;SDS011;41355;50.390;19.096;2023-06-14T05:10:26;20.73;;;10.57;;
55493;SDS011;41355;50.390;19.096;2023-06-14T05:12:52;16.35;;;8.35;;
55493;SDS011;41355;50.390;19.096;2023-06-14T05:15:19;18.65;;;9.98;;
55493;SDS011;41355;50.390;19.096;2023-06-14T05:17:51;24.67;;;10.63;;
55493;SDS011;41355;50.390;19.096;2023-06-14T05:20:20;22.20;;;10.50;;
55493;SDS011;41355;50.390;19.096;2023-06-14T05:22:48;19.65;;;9.88;;
55493;SDS011;41355;50.390;19.096;2023-06-14T05:25:16;18.15;;;9.82;;
55493;SDS011;41355;50.390;19.096;2023-06-14T05:27:42;19.63;;;10.48;;
55493;SDS011;41355;50.390;19.096;2023-06-14T05:30:09;23.45;;;10.77;;
55493;SDS011;41355;50.390;19.096;2023-06-14T05:32:35;21.88;;;10.50;;
55493;SDS011;41355;50.390;19.096;2023-06-14T05:35:01;21.15;;;9.93;;
55493;SDS011;41355;50.390;19.096;2023-06-14T05:37:27;18.27;;;8.93;;
55493;SDS011;41355;50.390;19.096;2023-06-14T05:39:53;19.10;;;10.00;;
55493;SDS011;41355;50.390;19.096;2023-06-14T05:42:19;21.23;;;10.25;;
55493;SDS011;41355;50.390;19.096;2023-06-14T05:44:45;19.52;;;9.93;;
55493;SDS011;41355;50.390;19.096;2023-06-14T05:47:11;19.80;;;9.77;;
55493;SDS011;41355;50.390;19.096;2023-06-14T05:49:37;21.08;;;11.18;;
55493;SDS011;41355;50.390;19.096;2023-06-14T05:52:03;26.30;;;12.02;;
55493;SDS011;41355;50.390;19.096;2023-06-14T05:54:30;22.55;;;10.43;;
55493;SDS011;41355;50.390;19.096;2023-06-14T05:56:56;23.45;;;11.40;;
55493;SDS011;41355;50.390;19.096;2023-06-14T05:59:26;19.95;;;9.88;;
55493;SDS011;41355;50.390;19.096;2023-06-14T06:01:52;22.55;;;10.90;;
55493;SDS011;41355;50.390;19.096;2023-06-14T06:04:18;19.83;;;9.70;;
55493;SDS011;41355;50.390;19.096;2023-06-14T06:06:45;15.80;;;8.50;;
55493;SDS011;41355;50.390;19.096;2023-06-14T06:09:12;14.10;;;6.70;;
55493;SDS011;41355;50.390;19.096;2023-06-14T06:11:39;16.80;;;8.27;;
55493;SDS011;41355;50.390;19.096;2023-06-14T06:14:06;20.05;;;9.68;;
55493;SDS011;41355;50.390;19.096;2023-06-14T06:16:32;20.27;;;9.52;;
55493;SDS011;41355;50.390;19.096;2023-06-14T06:18:58;15.63;;;7.75;;
55493;SDS011;41355;50.390;19.096;2023-06-14T06:21:24;12.88;;;7.03;;
55493;SDS011;41355;50.390;19.096;2023-06-14T06:23:51;14.07;;;6.95;;
55493;SDS011;41355;50.390;19.096;2023-06-14T06:26:17;16.48;;;7.72;;
55493;SDS011;41355;50.390;19.096;2023-06-14T06:28:43;14.25;;;7.72;;
55493;SDS011;41355;50.390;19.096;2023-06-14T06:31:09;15.35;;;7.15;;
55493;SDS011;41355;50.390;19.096;2023-06-14T06:33:36;14.35;;;7.38;;
55493;SDS011;41355;50.390;19.096;2023-06-14T06:36:02;15.27;;;8.13;;
55493;SDS011;41355;50.390;19.096;2023-06-14T06:38:28;13.82;;;7.38;;
55493;SDS011;41355;50.390;19.096;2023-06-14T06:40:54;14.70;;;7.65;;
55493;SDS011;41355;50.390;19.096;2023-06-14T06:43:21;14.77;;;7.20;;
55493;SDS011;41355;50.390;19.096;2023-06-14T06:45:47;15.20;;;6.90;;
55493;SDS011;41355;50.390;19.096;2023-06-14T06:48:13;10.30;;;5.65;;
55493;SDS011;41355;50.390;19.096;2023-06-14T06:50:40;13.10;;;6.53;;
55493;SDS011;41355;50.390;19.096;2023-06-14T06:53:06;10.10;;;4.85;;
55493;SDS011;41355;50.390;19.096;2023-06-14T06:55:33;12.25;;;6.22;;
55493;SDS011;41355;50.390;19.096;2023-06-14T06:57:59;7.53;;;4.15;;
55493;SDS011;41355;50.390;19.096;2023-06-14T07:00:25;7.65;;;3.22;;
55493;SDS011;41355;50.390;19.096;2023-06-14T07:02:51;7.20;;;3.53;;
55493;SDS011;41355;50.390;19.096;2023-06-14T07:05:20;7.07;;;3.83;;
55493;SDS011;41355;50.390;19.096;2023-06-14T07:07:46;7.90;;;3.80;;
55493;SDS011;41355;50.390;19.096;2023-06-14T07:10:12;6.05;;;3.20;;
55493;SDS011;41355;50.390;19.096;2023-06-14T07:12:38;7.13;;;3.05;;
55493;SDS011;41355;50.390;19.096;2023-06-14T07:15:07;6.00;;;2.92;;
55493;SDS011;41355;50.390;19.096;2023-06-14T07:17:34;7.25;;;2.90;;
55493;SDS011;41355;50.390;19.096;2023-06-14T07:20:00;5.35;;;2.65;;
55493;SDS011;41355;50.390;19.096;2023-06-14T07:22:30;6.70;;;3.58;;
55493;SDS011;41355;50.390;19.096;2023-06-14T07:24:56;8.27;;;3.38;;
55493;SDS011;41355;50.390;19.096;2023-06-14T07:27:22;6.82;;;3.92;;
55493;SDS011;41355;50.390;19.096;2023-06-14T07:29:48;8.15;;;3.40;;
55493;SDS011;41355;50.390;19.096;2023-06-14T07:32:14;8.23;;;3.83;;
55493;SDS011;41355;50.390;19.096;2023-06-14T07:34:40;7.72;;;3.90;;
55493;SDS011;41355;50.390;19.096;2023-06-14T07:37:06;6.90;;;3.70;;
55493;SDS011;41355;50.390;19.096;2023-06-14T07:39:32;7.80;;;4.22;;
55493;SDS011;41355;50.390;19.096;2023-06-14T07:41:58;9.82;;;4.57;;
55493;SDS011;41355;50.390;19.096;2023-06-14T07:44:24;10.10;;;5.35;;
55493;SDS011;41355;50.390;19.096;2023-06-14T07:46:50;9.60;;;5.13;;
55493;SDS011;41355;50.390;19.096;2023-06-14T07:49:16;9.07;;;4.78;;
55493;SDS011;41355;50.390;19.096;2023-06-14T07:51:42;9.68;;;5.07;;
55493;SDS011;41355;50.390;19.096;2023-06-14T07:54:10;11.18;;;4.63;;
55493;SDS011;41355;50.390;19.096;2023-06-14T07:56:36;9.45;;;4.97;;
55493;SDS011;41355;50.390;19.096;2023-06-14T07:59:02;10.13;;;5.10;;
55493;SDS011;41355;50.390;19.096;2023-06-14T08:01:28;7.28;;;3.28;;
55493;SDS011;41355;50.390;19.096;2023-06-14T08:03:54;7.70;;;4.30;;
55493;SDS011;41355;50.390;19.096;2023-06-14T08:06:20;6.30;;;3.40;;
55493;SDS011;41355;50.390;19.096;2023-06-14T08:08:46;7.03;;;4.00;;
55493;SDS011;41355;50.390;19.096;2023-06-14T08:11:12;6.75;;;3.72;;
55493;SDS011;41355;50.390;19.096;2023-06-14T08:13:38;8.18;;;4.28;;
55493;SDS011;41355;50.390;19.096;2023-06-14T08:16:04;8.90;;;4.80;;
55493;SDS011;41355;50.390;19.096;2023-06-14T08:18:30;8.27;;;4.00;;
55493;SDS011;41355;50.390;19.096;2023-06-14T08:20:56;8.85;;;4.15;;
55493;SDS011;41355;50.390;19.096;2023-06-14T08:23:22;10.02;;;5.18;;
55493;SDS011;41355;50.390;19.096;2023-06-14T08:25:48;7.53;;;4.28;;
55493;SDS011;41355;50.390;19.096;2023-06-14T08:28:15;9.60;;;4.95;;
55493;SDS011;41355;50.390;19.096;2023-06-14T08:30:41;8.85;;;4.78;;
55493;SDS011;41355;50.390;19.096;2023-06-14T08:33:07;12.18;;;5.63;;
55493;SDS011;41355;50.390;19.096;2023-06-14T08:35:33;10.07;;;5.38;;
55493;SDS011;41355;50.390;19.096;2023-06-14T08:38:02;10.30;;;5.55;;
55493;SDS011;41355;50.390;19.096;2023-06-14T08:40:29;10.15;;;4.78;;
55493;SDS011;41355;50.390;19.096;2023-06-14T08:42:55;8.60;;;4.90;;
55493;SDS011;41355;50.390;19.096;2023-06-14T08:45:22;9.40;;;4.70;;
55493;SDS011;41355;50.390;19.096;2023-06-14T08:47:49;8.90;;;4.88;;
55493;SDS011;41355;50.390;19.096;2023-06-14T08:50:20;8.38;;;5.20;;
55493;SDS011;41355;50.390;19.096;2023-06-14T08:52:48;8.02;;;4.32;;
55493;SDS011;41355;50.390;19.096;2023-06-14T08:55:16;7.60;;;4.30;;
55493;SDS011;41355;50.390;19.096;2023-06-14T08:57:42;7.60;;;4.10;;
55493;SDS011;41355;50.390;19.096;2023-06-14T09:00:09;6.68;;;3.85;;
55493;SDS011;41355;50.390;19.096;2023-06-14T09:02:39;7.00;;;4.00;;
55493;SDS011;41355;50.390;19.096;2023-06-14T09:05:11;7.50;;;3.55;;
55493;SDS011;41355;50.390;19.096;2023-06-14T09:07:43;7.03;;;3.33;;
55493;SDS011;41355;50.390;19.096;2023-06-14T09:10:10;7.45;;;4.03;;
55493;SDS011;41355;50.390;19.096;2023-06-14T09:12:37;7.80;;;4.53;;
55493;SDS011;41355;50.390;19.096;2023-06-14T09:15:04;9.07;;;5.13;;
55493;SDS011;41355;50.390;19.096;2023-06-14T09:17:38;9.13;;;5.35;;
55493;SDS011;41355;50.390;19.096;2023-06-14T09:20:04;8.53;;;5.07;;
55493;SDS011;41355;50.390;19.096;2023-06-14T09:22:34;9.10;;;5.65;;
55493;SDS011;41355;50.390;19.096;2023-06-14T09:25:00;8.57;;;5.30;;
55493;SDS011;41355;50.390;19.096;2023-06-14T09:27:27;9.93;;;5.35;;
55493;SDS011;41355;50.390;19.096;2023-06-14T09:29:53;9.10;;;4.75;;
55493;SDS011;41355;50.390;19.096;2023-06-14T09:32:20;9.45;;;5.68;;
55493;SDS011;41355;50.390;19.096;2023-06-14T09:34:46;8.65;;;5.47;;
55493;SDS011;41355;50.390;19.096;2023-06-14T09:37:12;10.52;;;6.43;;
55493;SDS011;41355;50.390;19.096;2023-06-14T09:39:50;10.30;;;6.20;;
55493;SDS011;41355;50.390;19.096;2023-06-14T09:42:16;11.75;;;6.05;;
55493;SDS011;41355;50.390;19.096;2023-06-14T09:44:49;10.00;;;5.82;;
55493;SDS011;41355;50.390;19.096;2023-06-14T09:47:15;8.63;;;5.55;;
55493;SDS011;41355;50.390;19.096;2023-06-14T09:49:41;8.32;;;5.10;;
55493;SDS011;41355;50.390;19.096;2023-06-14T09:52:18;7.65;;;4.43;;
55493;SDS011;41355;50.390;19.096;2023-06-14T09:54:45;10.15;;;4.95;;
55493;SDS011;41355;50.390;19.096;2023-06-14T09:57:12;10.23;;;4.47;;
55493;SDS011;41355;50.390;19.096;2023-06-14T09:59:42;8.45;;;4.60;;
55493;SDS011;41355;50.390;19.096;2023-06-14T10:02:14;6.63;;;3.30;;
55493;SDS011;41355;50.390;19.096;2023-06-14T10:04:44;7.93;;;3.60;;
55493;SDS011;41355;50.390;19.096;2023-06-14T10:07:13;6.10;;;3.28;;
55493;SDS011;41355;50.390;19.096;2023-06-14T10:09:40;6.25;;;3.67;;
55493;SDS011;41355;50.390;19.096;2023-06-14T10:12:09;6.07;;;3.45;;
55493;SDS011;41355;50.390;19.096;2023-06-14T10:14:35;5.78;;;2.92;;
55493;SDS011;41355;50.390;19.096;2023-06-14T10:17:06;7.43;;;3.83;;
55493;SDS011;41355;50.390;19.096;2023-06-14T10:19:36;7.15;;;4.18;;
55493;SDS011;41355;50.390;19.096;2023-06-14T10:22:08;7.68;;;4.00;;
55493;SDS011;41355;50.390;19.096;2023-06-14T10:24:40;7.18;;;4.13;;
55493;SDS011;41355;50.390;19.096;2023-06-14T10:27:07;5.70;;;3.25;;
55493;SDS011;41355;50.390;19.096;2023-06-14T10:32:26;5.97;;;3.67;;
55493;SDS011;41355;50.390;19.096;2023-06-14T10:34:59;6.75;;;3.15;;
55493;SDS011;41355;50.390;19.096;2023-06-14T10:37:25;6.82;;;4.00;;
55493;SDS011;41355;50.390;19.096;2023-06-14T10:39:51;9.18;;;3.60;;
55493;SDS011;41355;50.390;19.096;2023-06-14T10:42:21;6.90;;;3.78;;
55493;SDS011;41355;50.390;19.096;2023-06-14T10:44:54;7.15;;;4.03;;
55493;SDS011;41355;50.390;19.096;2023-06-14T10:47:33;7.53;;;4.30;;
55493;SDS011;41355;50.390;19.096;2023-06-14T10:50:09;6.93;;;3.90;;
55493;SDS011;41355;50.390;19.096;2023-06-14T10:52:39;8.32;;;4.07;;
55493;SDS011;41355;50.390;19.096;2023-06-14T11:00:17;8.35;;;4.30;;
55493;SDS011;41355;50.390;19.096;2023-06-14T11:05:25;9.02;;;4.28;;
55493;SDS011;41355;50.390;19.096;2023-06-14T11:10:37;8.57;;;4.97;;
55493;SDS011;41355;50.390;19.096;2023-06-14T11:13:04;10.32;;;5.53;;
55493;SDS011;41355;50.390;19.096;2023-06-14T11:15:31;9.38;;;5.55;;
55493;SDS011;41355;50.390;19.096;2023-06-14T11:17:57;10.23;;;5.60;;
55493;SDS011;41355;50.390;19.096;2023-06-14T11:20:26;9.45;;;5.90;;
55493;SDS011;41355;50.390;19.096;2023-06-14T11:22:53;11.93;;;6.57;;
55493;SDS011;41355;50.390;19.096;2023-06-14T11:25:19;10.23;;;6.32;;
55493;SDS011;41355;50.390;19.096;2023-06-14T11:27:46;11.68;;;6.70;;
55493;SDS011;41355;50.390;19.096;2023-06-14T11:30:12;10.98;;;6.18;;
55493;SDS011;41355;50.390;19.096;2023-06-14T11:32:39;8.63;;;5.50;;
55493;SDS011;41355;50.390;19.096;2023-06-14T11:35:06;9.25;;;5.40;;
55493;SDS011;41355;50.390;19.096;2023-06-14T11:37:33;15.48;;;6.90;;
55493;SDS011;41355;50.390;19.096;2023-06-14T11:39:59;11.40;;;6.28;;
55493;SDS011;41355;50.390;19.096;2023-06-14T11:42:29;10.18;;;5.78;;
55493;SDS011;41355;50.390;19.096;2023-06-14T11:44:55;9.73;;;5.78;;
55493;SDS011;41355;50.390;19.096;2023-06-14T11:47:22;8.77;;;4.50;;
55493;SDS011;41355;50.390;19.096;2023-06-14T11:49:48;9.07;;;4.85;;
55493;SDS011;41355;50.390;19.096;2023-06-14T11:52:14;8.52;;;4.82;;
55493;SDS011;41355;50.390;19.096;2023-06-14T11:54:40;16.45;;;5.15;;
55493;SDS011;41355;50.390;19.096;2023-06-14T11:57:07;8.18;;;4.32;;
55493;SDS011;41355;50.390;19.096;2023-06-14T11:59:39;8.20;;;4.60;;
55493;SDS011;41355;50.390;19.096;2023-06-14T12:02:06;7.03;;;4.22;;
55493;SDS011;41355;50.390;19.096;2023-06-14T12:04:32;9.07;;;4.93;;
55493;SDS011;41355;50.390;19.096;2023-06-14T12:07:19;8.60;;;4.13;;
55493;SDS011;41355;50.390;19.096;2023-06-14T12:12:20;7.95;;;4.20;;
55493;SDS011;41355;50.390;19.096;2023-06-14T12:14:46;5.60;;;3.28;;
55493;SDS011;41355;50.390;19.096;2023-06-14T12:17:13;7.78;;;4.10;;
55493;SDS011;41355;50.390;19.096;2023-06-14T12:19:42;7.28;;;3.97;;
55493;SDS011;41355;50.390;19.096;2023-06-14T12:22:12;7.45;;;3.88;;
55493;SDS011;41355;50.390;19.096;2023-06-14T12:24:39;6.45;;;3.55;;
55493;SDS011;41355;50.390;19.096;2023-06-14T12:27:05;5.60;;;2.90;;
55493;SDS011;41355;50.390;19.096;2023-06-14T12:29:31;5.38;;;3.08;;
55493;SDS011;41355;50.390;19.096;2023-06-14T12:31:58;5.50;;;3.20;;
55493;SDS011;41355;50.390;19.096;2023-06-14T12:34:24;5.55;;;3.00;;
55493;SDS011;41355;50.390;19.096;2023-06-14T12:36:52;5.60;;;3.15;;
55493;SDS011;41355;50.390;19.096;2023-06-14T12:39:18;7.07;;;3.25;;
55493;SDS011;41355;50.390;19.096;2023-06-14T12:41:44;5.45;;;2.90;;
55493;SDS011;41355;50.390;19.096;2023-06-14T12:44:11;5.60;;;3.05;;
55493;SDS011;41355;50.390;19.096;2023-06-14T12:46:37;6.05;;;3.00;;
55493;SDS011;41355;50.390;19.096;2023-06-14T12:49:04;6.40;;;3.40;;
55493;SDS011;41355;50.390;19.096;2023-06-14T12:51:32;5.93;;;3.17;;
55493;SDS011;41355;50.390;19.096;2023-06-14T12:53:58;7.65;;;3.65;;
55493;SDS011;41355;50.390;19.096;2023-06-14T12:56:24;7.10;;;3.03;;
55493;SDS011;41355;50.390;19.096;2023-06-14T12:58:51;5.78;;;3.17;;
55493;SDS011;41355;50.390;19.096;2023-06-14T13:01:18;6.03;;;2.80;;
55493;SDS011;41355;50.390;19.096;2023-06-14T13:03:44;6.70;;;3.30;;
55493;SDS011;41355;50.390;19.096;2023-06-14T13:06:10;6.10;;;3.15;;
55493;SDS011;41355;50.390;19.096;2023-06-14T13:08:36;7.75;;;3.20;;
55493;SDS011;41355;50.390;19.096;2023-06-14T13:11:02;6.57;;;3.03;;
55493;SDS011;41355;50.390;19.096;2023-06-14T13:13:28;5.97;;;2.63;;
55493;SDS011;41355;50.390;19.096;2023-06-14T13:15:54;6.00;;;2.70;;
55493;SDS011;41355;50.390;19.096;2023-06-14T13:18:20;5.13;;;2.53;;
55493;SDS011;41355;50.390;19.096;2023-06-14T13:20:46;6.88;;;2.47;;
55493;SDS011;41355;50.390;19.096;2023-06-14T13:23:12;6.78;;;2.63;;
55493;SDS011;41355;50.390;19.096;2023-06-14T13:25:38;6.40;;;2.90;;
55493;SDS011;41355;50.390;19.096;2023-06-14T13:28:05;6.93;;;2.70;;
55493;SDS011;41355;50.390;19.096;2023-06-14T13:30:31;5.80;;;2.75;;
55493;SDS011;41355;50.390;19.096;2023-06-14T13:32:57;4.47;;;1.95;;
55493;SDS011;41355;50.390;19.096;2023-06-14T13:35:24;5.93;;;2.72;;
55493;SDS011;41355;50.390;19.096;2023-06-14T13:37:50;7.03;;;2.88;;
55493;SDS011;41355;50.390;19.096;2023-06-14T13:40:16;4.90;;;2.00;;
55493;SDS011;41355;50.390;19.096;2023-06-14T13:42:42;6.45;;;2.50;;
55493;SDS011;41355;50.390;19.096;2023-06-14T13:45:09;6.38;;;2.85;;
55493;SDS011;41355;50.390;19.096;2023-06-14T13:47:36;6.47;;;3.10;;
55493;SDS011;41355;50.390;19.096;2023-06-14T13:50:02;5.95;;;2.90;;
55493;SDS011;41355;50.390;19.096;2023-06-14T13:52:28;5.78;;;2.90;;
55493;SDS011;41355;50.390;19.096;2023-06-14T13:54:54;5.68;;;2.72;;
55493;SDS011;41355;50.390;19.096;2023-06-14T13:57:20;5.70;;;2.70;;
55493;SDS011;41355;50.390;19.096;2023-06-14T13:59:46;6.45;;;3.28;;
55493;SDS011;41355;50.390;19.096;2023-06-14T14:02:13;7.22;;;3.10;;
55493;SDS011;41355;50.390;19.096;2023-06-14T14:04:39;8.77;;;3.05;;
55493;SDS011;41355;50.390;19.096;2023-06-14T14:07:06;7.03;;;3.05;;
55493;SDS011;41355;50.390;19.096;2023-06-14T14:09:33;6.53;;;3.00;;
55493;SDS011;41355;50.390;19.096;2023-06-14T14:12:02;6.65;;;3.03;;
55493;SDS011;41355;50.390;19.096;2023-06-14T14:14:29;5.88;;;3.20;;
55493;SDS011;41355;50.390;19.096;2023-06-14T14:16:56;7.13;;;2.58;;
55493;SDS011;41355;50.390;19.096;2023-06-14T14:19:22;6.07;;;3.05;;
55493;SDS011;41355;50.390;19.096;2023-06-14T14:21:48;5.88;;;3.08;;
55493;SDS011;41355;50.390;19.096;2023-06-14T14:24:14;5.10;;;2.67;;
55493;SDS011;41355;50.390;19.096;2023-06-14T14:26:41;6.75;;;3.13;;
55493;SDS011;41355;50.390;19.096;2023-06-14T14:29:07;6.25;;;3.33;;
55493;SDS011;41355;50.390;19.096;2023-06-14T14:31:33;6.57;;;3.28;;
55493;SDS011;41355;50.390;19.096;2023-06-14T14:34:00;6.32;;;3.40;;
55493;SDS011;41355;50.390;19.096;2023-06-14T14:36:26;7.30;;;3.60;;
55493;SDS011;41355;50.390;19.096;2023-06-14T14:38:52;9.07;;;3.75;;
55493;SDS011;41355;50.390;19.096;2023-06-14T14:41:18;8.00;;;3.42;;
55493;SDS011;41355;50.390;19.096;2023-06-14T14:43:44;6.97;;;3.50;;
55493;SDS011;41355;50.390;19.096;2023-06-14T14:46:10;5.68;;;3.58;;